sensor_id;sensor_type;location;lat;lon;timestamp;P1;durP1;ratioP1;P2;durP2;ratioP2
8574;SDS011;4325;42.520;27.448;2023-06-19T00:00:00;2.53;;;2.17;;
8574;SDS011;4325;42.520;27.448;2023-06-19T00:02:32;2.70;;;2.50;;
8574;SDS011;4325;42.520;27.448;2023-06-19T00:04:59;2.33;;;2.13;;
8574;SDS011;4325;42.520;27.448;2023-06-19T00:07:26;2.63;;;2.43;;
8574;SDS011;4325;42.520;27.448;2023-06-19T00:09:53;3.93;;;2.40;;
8574;SDS011;4325;42.520;27.448;2023-06-19T00:12:19;3.33;;;2.10;;
8574;SDS011;4325;42.520;27.448;2023-06-19T00:14:46;3.60;;;2.47;;
8574;SDS011;4325;42.520;27.448;2023-06-19T00:17:15;5.67;;;3.27;;
8574;SDS011;4325;42.520;27.448;2023-06-19T00:19:42;5.20;;;2.97;;
8574;SDS011;4325;42.520;27.448;2023-06-19T00:22:09;3.20;;;2.20;;
8574;SDS011;4325;42.520;27.448;2023-06-19T00:24:36;2.50;;;2.23;;
8574;SDS011;4325;42.520;27.448;2023-06-19T00:27:03;3.57;;;2.87;;
8574;SDS011;4325;42.520;27.448;2023-06-19T00:29:31;9.60;;;2.97;;
8574;SDS011;4325;42.520;27.448;2023-06-19T00:31:59;4.23;;;2.57;;
8574;SDS011;4325;42.520;27.448;2023-06-19T00:34:28;2.67;;;2.27;;
8574;SDS011;4325;42.520;27.448;2023-06-19T00:36:56;2.47;;;2.17;;
8574;SDS011;4325;42.520;27.448;2023-06-19T00:39:24;2.47;;;1.97;;
8574;SDS011;4325;42.520;27.448;2023-06-19T00:41:52;3.00;;;2.23;;
8574;SDS011;4325;42.520;27.448;2023-06-19T00:44:20;2.13;;;1.93;;
8574;SDS011;4325;42.520;27.448;2023-06-19T00:46:47;4.17;;;1.80;;
8574;SDS011;4325;42.520;27.448;2023-06-19T00:49:21;3.93;;;2.60;;
8574;SDS011;4325;42.520;27.448;2023-06-19T00:51:50;6.63;;;2.37;;
8574;SDS011;4325;42.520;27.448;2023-06-19T00:54:18;2.80;;;2.37;;
8574;SDS011;4325;42.520;27.448;2023-06-19T00:56:45;2.97;;;2.40;;
8574;SDS011;4325;42.520;27.448;2023-06-19T00:59:14;3.53;;;2.20;;
8574;SDS011;4325;42.520;27.448;2023-06-19T01:01:43;2.90;;;2.50;;
8574;SDS011;4325;42.520;27.448;2023-06-19T01:04:10;3.00;;;2.20;;
8574;SDS011;4325;42.520;27.448;2023-06-19T01:06:40;3.57;;;2.97;;
8574;SDS011;4325;42.520;27.448;2023-06-19T01:09:14;3.23;;;2.53;;
8574;SDS011;4325;42.520;27.448;2023-06-19T01:11:44;3.50;;;2.57;;
8574;SDS011;4325;42.520;27.448;2023-06-19T01:14:16;2.50;;;2.30;;
8574;SDS011;4325;42.520;27.448;2023-06-19T01:16:47;3.30;;;2.73;;
8574;SDS011;4325;42.520;27.448;2023-06-19T01:19:15;3.93;;;2.30;;
8574;SDS011;4325;42.520;27.448;2023-06-19T01:21:45;2.93;;;2.63;;
8574;SDS011;4325;42.520;27.448;2023-06-19T01:24:14;4.23;;;2.37;;
8574;SDS011;4325;42.520;27.448;2023-06-19T01:26:41;2.73;;;2.37;;
8574;SDS011;4325;42.520;27.448;2023-06-19T01:29:11;2.80;;;2.60;;
8574;SDS011;4325;42.520;27.448;2023-06-19T01:31:42;4.03;;;3.00;;
8574;SDS011;4325;42.520;27.448;2023-06-19T01:34:17;4.47;;;3.63;;
8574;SDS011;4325;42.520;27.448;2023-06-19T01:36:46;4.17;;;3.07;;
8574;SDS011;4325;42.520;27.448;2023-06-19T01:39:16;2.80;;;2.33;;
8574;SDS011;4325;42.520;27.448;2023-06-19T01:41:45;3.87;;;2.50;;
8574;SDS011;4325;42.520;27.448;2023-06-19T01:44:12;2.70;;;2.50;;
8574;SDS011;4325;42.520;27.448;2023-06-19T01:46:40;4.80;;;2.73;;
8574;SDS011;4325;42.520;27.448;2023-06-19T01:49:07;9.87;;;3.00;;
8574;SDS011;4325;42.520;27.448;2023-06-19T01:51:35;2.83;;;2.00;;
8574;SDS011;4325;42.520;27.448;2023-06-19T01:54:02;3.53;;;2.70;;
8574;SDS011;4325;42.520;27.448;2023-06-19T01:56:31;2.67;;;2.47;;
8574;SDS011;4325;42.520;27.448;2023-06-19T01:58:58;2.47;;;2.27;;
8574;SDS011;4325;42.520;27.448;2023-06-19T02:01:25;4.07;;;2.30;;
8574;SDS011;4325;42.520;27.448;2023-06-19T02:03:52;4.40;;;2.13;;
8574;SDS011;4325;42.520;27.448;2023-06-19T02:06:19;2.47;;;2.27;;
8574;SDS011;4325;42.520;27.448;2023-06-19T02:08:47;3.10;;;2.60;;
8574;SDS011;4325;42.520;27.448;2023-06-19T02:11:14;4.20;;;2.43;;
8574;SDS011;4325;42.520;27.448;2023-06-19T02:13:43;5.67;;;2.80;;
8574;SDS011;4325;42.520;27.448;2023-06-19T02:16:10;2.27;;;2.07;;
8574;SDS011;4325;42.520;27.448;2023-06-19T02:18:36;2.53;;;2.23;;
8574;SDS011;4325;42.520;27.448;2023-06-19T02:21:03;2.60;;;2.37;;
8574;SDS011;4325;42.520;27.448;2023-06-19T02:23:30;8.00;;;2.67;;
8574;SDS011;4325;42.520;27.448;2023-06-19T02:25:57;3.73;;;2.40;;
8574;SDS011;4325;42.520;27.448;2023-06-19T02:28:24;3.43;;;2.60;;
8574;SDS011;4325;42.520;27.448;2023-06-19T02:30:53;2.40;;;2.20;;
8574;SDS011;4325;42.520;27.448;2023-06-19T02:33:20;2.50;;;2.30;;
8574;SDS011;4325;42.520;27.448;2023-06-19T02:35:47;2.73;;;2.53;;
8574;SDS011;4325;42.520;27.448;2023-06-19T02:38:14;2.63;;;2.40;;
8574;SDS011;4325;42.520;27.448;2023-06-19T02:40:43;2.57;;;2.37;;
8574;SDS011;4325;42.520;27.448;2023-06-19T02:43:10;2.83;;;2.63;;
8574;SDS011;4325;42.520;27.448;2023-06-19T02:45:37;2.30;;;2.10;;
8574;SDS011;4325;42.520;27.448;2023-06-19T02:48:05;2.80;;;2.60;;
8574;SDS011;4325;42.520;27.448;2023-06-19T02:50:32;4.57;;;2.20;;
8574;SDS011;4325;42.520;27.448;2023-06-19T02:52:59;3.00;;;2.70;;
8574;SDS011;4325;42.520;27.448;2023-06-19T02:55:26;5.53;;;3.00;;
8574;SDS011;4325;42.520;27.448;2023-06-19T02:57:53;5.33;;;2.70;;
8574;SDS011;4325;42.520;27.448;2023-06-19T03:00:20;2.67;;;2.47;;
8574;SDS011;4325;42.520;27.448;2023-06-19T03:02:47;2.57;;;2.37;;
8574;SDS011;4325;42.520;27.448;2023-06-19T03:05:17;2.93;;;2.20;;
8574;SDS011;4325;42.520;27.448;2023-06-19T03:07:45;2.60;;;2.40;;
8574;SDS011;4325;42.520;27.448;2023-06-19T03:10:12;2.83;;;2.40;;
8574;SDS011;4325;42.520;27.448;2023-06-19T03:12:38;3.27;;;2.73;;
8574;SDS011;4325;42.520;27.448;2023-06-19T03:15:06;2.83;;;2.27;;
8574;SDS011;4325;42.520;27.448;2023-06-19T03:17:33;4.40;;;3.03;;
8574;SDS011;4325;42.520;27.448;2023-06-19T03:20:00;4.97;;;3.03;;
8574;SDS011;4325;42.520;27.448;2023-06-19T03:22:31;5.77;;;3.10;;
8574;SDS011;4325;42.520;27.448;2023-06-19T03:25:06;2.57;;;2.33;;
8574;SDS011;4325;42.520;27.448;2023-06-19T03:27:34;3.03;;;2.77;;
8574;SDS011;4325;42.520;27.448;2023-06-19T03:30:02;4.67;;;2.70;;
8574;SDS011;4325;42.520;27.448;2023-06-19T03:32:31;2.80;;;2.60;;
8574;SDS011;4325;42.520;27.448;2023-06-19T03:34:58;6.33;;;3.00;;
8574;SDS011;4325;42.520;27.448;2023-06-19T03:37:26;3.73;;;3.10;;
8574;SDS011;4325;42.520;27.448;2023-06-19T03:39:54;5.07;;;3.70;;
8574;SDS011;4325;42.520;27.448;2023-06-19T03:42:21;4.00;;;2.83;;
8574;SDS011;4325;42.520;27.448;2023-06-19T03:44:48;3.93;;;2.93;;
8574;SDS011;4325;42.520;27.448;2023-06-19T03:47:15;3.30;;;2.97;;
8574;SDS011;4325;42.520;27.448;2023-06-19T03:49:42;4.93;;;3.10;;
8574;SDS011;4325;42.520;27.448;2023-06-19T03:52:09;4.87;;;3.10;;
8574;SDS011;4325;42.520;27.448;2023-06-19T03:54:36;4.87;;;3.30;;
8574;SDS011;4325;42.520;27.448;2023-06-19T03:57:05;4.10;;;3.27;;
8574;SDS011;4325;42.520;27.448;2023-06-19T03:59:33;3.17;;;2.87;;
8574;SDS011;4325;42.520;27.448;2023-06-19T04:02:00;4.07;;;3.27;;
8574;SDS011;4325;42.520;27.448;2023-06-19T04:04:27;6.20;;;3.43;;
8574;SDS011;4325;42.520;27.448;2023-06-19T04:06:54;5.57;;;3.40;;
8574;SDS011;4325;42.520;27.448;2023-06-19T04:09:22;8.87;;;3.57;;
8574;SDS011;4325;42.520;27.448;2023-06-19T04:11:49;3.37;;;3.07;;
8574;SDS011;4325;42.520;27.448;2023-06-19T04:14:17;4.63;;;3.17;;
8574;SDS011;4325;42.520;27.448;2023-06-19T04:16:44;4.07;;;3.37;;
8574;SDS011;4325;42.520;27.448;2023-06-19T04:19:11;3.73;;;3.33;;
8574;SDS011;4325;42.520;27.448;2023-06-19T04:21:38;4.50;;;3.53;;
8574;SDS011;4325;42.520;27.448;2023-06-19T04:24:05;10.77;;;4.13;;
8574;SDS011;4325;42.520;27.448;2023-06-19T04:26:34;4.93;;;3.87;;
8574;SDS011;4325;42.520;27.448;2023-06-19T04:29:01;9.27;;;4.03;;
8574;SDS011;4325;42.520;27.448;2023-06-19T04:31:29;6.27;;;3.77;;
8574;SDS011;4325;42.520;27.448;2023-06-19T04:33:56;5.77;;;3.63;;
8574;SDS011;4325;42.520;27.448;2023-06-19T04:36:23;6.97;;;4.00;;
8574;SDS011;4325;42.520;27.448;2023-06-19T04:38:50;7.80;;;4.97;;
8574;SDS011;4325;42.520;27.448;2023-06-19T04:41:17;5.20;;;4.13;;
8574;SDS011;4325;42.520;27.448;2023-06-19T04:43:44;4.87;;;3.93;;
8574;SDS011;4325;42.520;27.448;2023-06-19T04:46:11;5.43;;;3.90;;
8574;SDS011;4325;42.520;27.448;2023-06-19T04:48:39;3.77;;;3.30;;
8574;SDS011;4325;42.520;27.448;2023-06-19T04:51:06;8.10;;;4.13;;
8574;SDS011;4325;42.520;27.448;2023-06-19T04:53:34;5.50;;;4.07;;
8574;SDS011;4325;42.520;27.448;2023-06-19T04:56:02;8.23;;;3.80;;
8574;SDS011;4325;42.520;27.448;2023-06-19T04:58:29;5.40;;;3.87;;
8574;SDS011;4325;42.520;27.448;2023-06-19T05:00:57;5.30;;;3.77;;
8574;SDS011;4325;42.520;27.448;2023-06-19T05:03:23;4.97;;;3.73;;
8574;SDS011;4325;42.520;27.448;2023-06-19T05:05:52;5.00;;;3.83;;
8574;SDS011;4325;42.520;27.448;2023-06-19T05:08:19;5.43;;;3.80;;
8574;SDS011;4325;42.520;27.448;2023-06-19T05:10:45;3.63;;;3.30;;
8574;SDS011;4325;42.520;27.448;2023-06-19T05:13:12;4.27;;;3.83;;
8574;SDS011;4325;42.520;27.448;2023-06-19T05:15:39;4.90;;;3.63;;
8574;SDS011;4325;42.520;27.448;2023-06-19T05:18:06;5.13;;;3.83;;
8574;SDS011;4325;42.520;27.448;2023-06-19T05:20:33;4.50;;;3.70;;
8574;SDS011;4325;42.520;27.448;2023-06-19T05:23:01;11.17;;;4.23;;
8574;SDS011;4325;42.520;27.448;2023-06-19T05:25:28;5.27;;;4.53;;
8574;SDS011;4325;42.520;27.448;2023-06-19T05:27:55;5.43;;;3.87;;
8574;SDS011;4325;42.520;27.448;2023-06-19T05:30:22;6.00;;;4.70;;
8574;SDS011;4325;42.520;27.448;2023-06-19T05:32:49;6.90;;;4.73;;
8574;SDS011;4325;42.520;27.448;2023-06-19T05:35:16;5.53;;;4.00;;
8574;SDS011;4325;42.520;27.448;2023-06-19T05:37:43;4.47;;;3.70;;
8574;SDS011;4325;42.520;27.448;2023-06-19T05:40:11;5.57;;;3.97;;
8574;SDS011;4325;42.520;27.448;2023-06-19T05:42:39;5.40;;;3.33;;
8574;SDS011;4325;42.520;27.448;2023-06-19T05:45:07;6.13;;;4.10;;
8574;SDS011;4325;42.520;27.448;2023-06-19T05:47:34;5.50;;;3.80;;
8574;SDS011;4325;42.520;27.448;2023-06-19T05:50:02;4.80;;;3.60;;
8574;SDS011;4325;42.520;27.448;2023-06-19T05:52:29;6.17;;;4.07;;
8574;SDS011;4325;42.520;27.448;2023-06-19T05:54:56;5.90;;;3.20;;
8574;SDS011;4325;42.520;27.448;2023-06-19T05:57:25;4.07;;;3.50;;
8574;SDS011;4325;42.520;27.448;2023-06-19T05:59:52;7.63;;;3.63;;
8574;SDS011;4325;42.520;27.448;2023-06-19T06:02:19;6.47;;;4.07;;
8574;SDS011;4325;42.520;27.448;2023-06-19T06:04:46;14.37;;;3.93;;
8574;SDS011;4325;42.520;27.448;2023-06-19T06:07:13;4.13;;;3.73;;
8574;SDS011;4325;42.520;27.448;2023-06-19T06:09:40;6.43;;;4.17;;
8574;SDS011;4325;42.520;27.448;2023-06-19T06:12:07;4.33;;;3.93;;
8574;SDS011;4325;42.520;27.448;2023-06-19T06:14:36;8.60;;;3.83;;
8574;SDS011;4325;42.520;27.448;2023-06-19T06:17:03;4.20;;;3.40;;
8574;SDS011;4325;42.520;27.448;2023-06-19T06:19:31;4.40;;;3.80;;
8574;SDS011;4325;42.520;27.448;2023-06-19T06:21:58;5.53;;;3.73;;
8574;SDS011;4325;42.520;27.448;2023-06-19T06:24:24;3.60;;;3.30;;
8574;SDS011;4325;42.520;27.448;2023-06-19T06:26:52;3.57;;;3.23;;
8574;SDS011;4325;42.520;27.448;2023-06-19T06:29:20;4.17;;;3.17;;
8574;SDS011;4325;42.520;27.448;2023-06-19T06:31:48;4.10;;;3.40;;
8574;SDS011;4325;42.520;27.448;2023-06-19T06:34:17;3.80;;;3.37;;
8574;SDS011;4325;42.520;27.448;2023-06-19T06:36:44;3.13;;;2.70;;
8574;SDS011;4325;42.520;27.448;2023-06-19T06:39:11;3.50;;;3.20;;
8574;SDS011;4325;42.520;27.448;2023-06-19T06:41:38;7.80;;;3.57;;
8574;SDS011;4325;42.520;27.448;2023-06-19T06:44:05;6.33;;;3.77;;
8574;SDS011;4325;42.520;27.448;2023-06-19T06:46:32;4.87;;;3.33;;
8574;SDS011;4325;42.520;27.448;2023-06-19T06:49:00;3.67;;;3.37;;
8574;SDS011;4325;42.520;27.448;2023-06-19T06:51:27;4.10;;;3.20;;
8574;SDS011;4325;42.520;27.448;2023-06-19T06:53:54;3.73;;;3.33;;
8574;SDS011;4325;42.520;27.448;2023-06-19T06:56:21;4.47;;;3.50;;
8574;SDS011;4325;42.520;27.448;2023-06-19T06:58:48;8.37;;;3.47;;
8574;SDS011;4325;42.520;27.448;2023-06-19T07:01:15;4.07;;;3.40;;
8574;SDS011;4325;42.520;27.448;2023-06-19T07:03:42;3.47;;;3.03;;
8574;SDS011;4325;42.520;27.448;2023-06-19T07:06:10;3.20;;;2.90;;
8574;SDS011;4325;42.520;27.448;2023-06-19T07:08:37;3.97;;;3.57;;
8574;SDS011;4325;42.520;27.448;2023-06-19T07:11:05;3.17;;;2.87;;
8574;SDS011;4325;42.520;27.448;2023-06-19T07:13:32;2.90;;;2.60;;
8574;SDS011;4325;42.520;27.448;2023-06-19T07:15:59;3.37;;;2.83;;
8574;SDS011;4325;42.520;27.448;2023-06-19T07:18:26;3.97;;;3.20;;
8574;SDS011;4325;42.520;27.448;2023-06-19T07:20:54;6.90;;;2.90;;
8574;SDS011;4325;42.520;27.448;2023-06-19T07:23:22;3.93;;;3.27;;
8574;SDS011;4325;42.520;27.448;2023-06-19T07:25:49;3.87;;;3.40;;
8574;SDS011;4325;42.520;27.448;2023-06-19T07:28:16;3.93;;;3.53;;
8574;SDS011;4325;42.520;27.448;2023-06-19T07:30:43;3.23;;;2.90;;
8574;SDS011;4325;42.520;27.448;2023-06-19T07:33:12;3.53;;;2.80;;
8574;SDS011;4325;42.520;27.448;2023-06-19T07:35:39;3.47;;;3.07;;
8574;SDS011;4325;42.520;27.448;2023-06-19T07:38:06;3.90;;;3.33;;
8574;SDS011;4325;42.520;27.448;2023-06-19T07:40:34;3.23;;;3.03;;
8574;SDS011;4325;42.520;27.448;2023-06-19T07:43:01;4.17;;;3.00;;
8574;SDS011;4325;42.520;27.448;2023-06-19T07:45:28;3.43;;;3.10;;
8574;SDS011;4325;42.520;27.448;2023-06-19T07:47:55;3.20;;;2.90;;
8574;SDS011;4325;42.520;27.448;2023-06-19T07:50:22;3.43;;;2.67;;
8574;SDS011;4325;42.520;27.448;2023-06-19T07:52:49;3.13;;;2.80;;
8574;SDS011;4325;42.520;27.448;2023-06-19T07:55:16;3.23;;;2.93;;
8574;SDS011;4325;42.520;27.448;2023-06-19T07:57:44;3.47;;;2.93;;
8574;SDS011;4325;42.520;27.448;2023-06-19T08:00:12;4.30;;;3.10;;
8574;SDS011;4325;42.520;27.448;2023-06-19T08:02:40;3.30;;;3.00;;
8574;SDS011;4325;42.520;27.448;2023-06-19T08:05:08;6.37;;;3.67;;
8574;SDS011;4325;42.520;27.448;2023-06-19T08:07:35;3.33;;;3.03;;
8574;SDS011;4325;42.520;27.448;2023-06-19T08:10:03;2.80;;;2.60;;
8574;SDS011;4325;42.520;27.448;2023-06-19T08:12:31;3.73;;;2.67;;
8574;SDS011;4325;42.520;27.448;2023-06-19T08:14:59;3.17;;;2.87;;
8574;SDS011;4325;42.520;27.448;2023-06-19T08:17:26;3.30;;;3.00;;
8574;SDS011;4325;42.520;27.448;2023-06-19T08:19:53;5.17;;;3.20;;
8574;SDS011;4325;42.520;27.448;2023-06-19T08:22:20;2.80;;;2.60;;
8574;SDS011;4325;42.520;27.448;2023-06-19T08:24:47;2.90;;;2.70;;
8574;SDS011;4325;42.520;27.448;2023-06-19T08:27:14;2.90;;;2.60;;
8574;SDS011;4325;42.520;27.448;2023-06-19T08:29:40;2.70;;;2.50;;
8574;SDS011;4325;42.520;27.448;2023-06-19T08:32:09;2.70;;;2.50;;
8574;SDS011;4325;42.520;27.448;2023-06-19T08:34:36;3.87;;;3.10;;
8574;SDS011;4325;42.520;27.448;2023-06-19T08:37:04;4.70;;;2.93;;
8574;SDS011;4325;42.520;27.448;2023-06-19T08:39:32;3.90;;;3.10;;
8574;SDS011;4325;42.520;27.448;2023-06-19T08:41:58;3.63;;;2.57;;
8574;SDS011;4325;42.520;27.448;2023-06-19T08:44:25;2.47;;;2.27;;
8574;SDS011;4325;42.520;27.448;2023-06-19T08:46:52;2.83;;;2.63;;
8574;SDS011;4325;42.520;27.448;2023-06-19T08:49:21;3.20;;;2.63;;
8574;SDS011;4325;42.520;27.448;2023-06-19T08:51:48;6.73;;;3.13;;
8574;SDS011;4325;42.520;27.448;2023-06-19T08:54:15;2.77;;;2.53;;
8574;SDS011;4325;42.520;27.448;2023-06-19T08:56:42;3.00;;;2.77;;
8574;SDS011;4325;42.520;27.448;2023-06-19T08:59:09;2.90;;;2.60;;
8574;SDS011;4325;42.520;27.448;2023-06-19T09:01:37;5.73;;;3.90;;
8574;SDS011;4325;42.520;27.448;2023-06-19T09:04:08;3.13;;;2.60;;
8574;SDS011;4325;42.520;27.448;2023-06-19T09:06:37;9.83;;;4.20;;
8574;SDS011;4325;42.520;27.448;2023-06-19T09:09:13;10.03;;;3.03;;
8574;SDS011;4325;42.520;27.448;2023-06-19T09:11:40;3.17;;;2.87;;
8574;SDS011;4325;42.520;27.448;2023-06-19T09:14:08;3.00;;;2.67;;
8574;SDS011;4325;42.520;27.448;2023-06-19T09:16:36;5.07;;;3.13;;
8574;SDS011;4325;42.520;27.448;2023-06-19T09:19:05;4.63;;;2.70;;
8574;SDS011;4325;42.520;27.448;2023-06-19T09:21:32;4.27;;;2.90;;
8574;SDS011;4325;42.520;27.448;2023-06-19T09:24:04;3.47;;;3.13;;
8574;SDS011;4325;42.520;27.448;2023-06-19T09:26:32;2.97;;;2.63;;
8574;SDS011;4325;42.520;27.448;2023-06-19T09:29:09;3.97;;;3.47;;
8574;SDS011;4325;42.520;27.448;2023-06-19T09:31:37;3.37;;;3.03;;
8574;SDS011;4325;42.520;27.448;2023-06-19T09:34:06;2.97;;;2.67;;
8574;SDS011;4325;42.520;27.448;2023-06-19T09:36:33;5.50;;;2.70;;
8574;SDS011;4325;42.520;27.448;2023-06-19T09:39:03;3.73;;;3.10;;
8574;SDS011;4325;42.520;27.448;2023-06-19T09:41:31;2.90;;;2.70;;
8574;SDS011;4325;42.520;27.448;2023-06-19T09:44:00;3.67;;;3.13;;
8574;SDS011;4325;42.520;27.448;2023-06-19T09:46:37;3.85;;;3.45;;
8574;SDS011;4325;42.520;27.448;2023-06-19T09:49:07;3.95;;;3.00;;
8574;SDS011;4325;42.520;27.448;2023-06-19T09:51:37;3.90;;;3.33;;
8574;SDS011;4325;42.520;27.448;2023-06-19T09:54:08;4.25;;;3.22;;
8574;SDS011;4325;42.520;27.448;2023-06-19T09:56:36;9.02;;;5.40;;
8574;SDS011;4325;42.520;27.448;2023-06-19T09:59:04;8.65;;;4.25;;
8574;SDS011;4325;42.520;27.448;2023-06-19T10:01:34;10.43;;;4.30;;
8574;SDS011;4325;42.520;27.448;2023-06-19T10:04:04;8.60;;;3.40;;
8574;SDS011;4325;42.520;27.448;2023-06-19T10:06:32;6.07;;;2.90;;
8574;SDS011;4325;42.520;27.448;2023-06-19T10:09:05;8.18;;;3.80;;
8574;SDS011;4325;42.520;27.448;2023-06-19T10:11:48;6.20;;;3.13;;
8574;SDS011;4325;42.520;27.448;2023-06-19T10:14:17;11.13;;;4.80;;
8574;SDS011;4325;42.520;27.448;2023-06-19T10:16:44;7.45;;;3.75;;
8574;SDS011;4325;42.520;27.448;2023-06-19T10:19:11;8.60;;;4.55;;
8574;SDS011;4325;42.520;27.448;2023-06-19T10:21:44;8.38;;;4.32;;
8574;SDS011;4325;42.520;27.448;2023-06-19T10:24:13;11.30;;;4.55;;
8574;SDS011;4325;42.520;27.448;2023-06-19T10:26:44;5.90;;;3.95;;
8574;SDS011;4325;42.520;27.448;2023-06-19T10:29:22;7.47;;;3.70;;
8574;SDS011;4325;42.520;27.448;2023-06-19T10:31:50;8.85;;;4.47;;
8574;SDS011;4325;42.520;27.448;2023-06-19T10:34:17;8.35;;;4.40;;
8574;SDS011;4325;42.520;27.448;2023-06-19T10:36:44;6.55;;;3.88;;
8574;SDS011;4325;42.520;27.448;2023-06-19T10:39:11;5.18;;;3.83;;
8574;SDS011;4325;42.520;27.448;2023-06-19T10:41:41;5.25;;;3.88;;
8574;SDS011;4325;42.520;27.448;2023-06-19T10:44:08;5.20;;;3.60;;
8574;SDS011;4325;42.520;27.448;2023-06-19T10:46:39;5.43;;;3.90;;
8574;SDS011;4325;42.520;27.448;2023-06-19T10:49:07;4.85;;;3.47;;
8574;SDS011;4325;42.520;27.448;2023-06-19T10:51:36;6.45;;;3.67;;
8574;SDS011;4325;42.520;27.448;2023-06-19T10:54:04;5.22;;;3.72;;
8574;SDS011;4325;42.520;27.448;2023-06-19T10:56:31;5.15;;;3.28;;
8574;SDS011;4325;42.520;27.448;2023-06-19T10:58:59;4.13;;;3.50;;
8574;SDS011;4325;42.520;27.448;2023-06-19T11:01:33;3.63;;;3.33;;
8574;SDS011;4325;42.520;27.448;2023-06-19T11:04:03;3.83;;;3.15;;
8574;SDS011;4325;42.520;27.448;2023-06-19T11:06:31;3.53;;;3.22;;
8574;SDS011;4325;42.520;27.448;2023-06-19T11:08:59;4.13;;;3.40;;
8574;SDS011;4325;42.520;27.448;2023-06-19T11:11:34;4.43;;;3.35;;
8574;SDS011;4325;42.520;27.448;2023-06-19T11:14:02;4.22;;;3.50;;
8574;SDS011;4325;42.520;27.448;2023-06-19T11:16:30;7.82;;;4.00;;
8574;SDS011;4325;42.520;27.448;2023-06-19T11:18:58;6.15;;;3.92;;
8574;SDS011;4325;42.520;27.448;2023-06-19T11:21:32;4.72;;;3.30;;
8574;SDS011;4325;42.520;27.448;2023-06-19T11:24:02;4.97;;;3.45;;
8574;SDS011;4325;42.520;27.448;2023-06-19T11:26:33;5.70;;;3.75;;
8574;SDS011;4325;42.520;27.448;2023-06-19T11:29:02;3.78;;;3.05;;
8574;SDS011;4325;42.520;27.448;2023-06-19T11:31:39;3.70;;;3.40;;
8574;SDS011;4325;42.520;27.448;2023-06-19T11:34:06;4.25;;;3.33;;
8574;SDS011;4325;42.520;27.448;2023-06-19T11:36:34;4.20;;;3.35;;
8574;SDS011;4325;42.520;27.448;2023-06-19T11:39:03;6.68;;;3.78;;
8574;SDS011;4325;42.520;27.448;2023-06-19T11:41:34;9.02;;;4.97;;
8574;SDS011;4325;42.520;27.448;2023-06-19T11:44:03;7.00;;;4.00;;
8574;SDS011;4325;42.520;27.448;2023-06-19T11:46:31;5.68;;;3.75;;
8574;SDS011;4325;42.520;27.448;2023-06-19T11:49:07;6.82;;;4.13;;
8574;SDS011;4325;42.520;27.448;2023-06-19T11:51:37;8.65;;;4.32;;
8574;SDS011;4325;42.520;27.448;2023-06-19T11:54:05;5.30;;;3.42;;
8574;SDS011;4325;42.520;27.448;2023-06-19T11:56:33;8.05;;;4.10;;
8574;SDS011;4325;42.520;27.448;2023-06-19T11:59:00;7.03;;;3.60;;
8574;SDS011;4325;42.520;27.448;2023-06-19T12:01:28;7.75;;;3.85;;
8574;SDS011;4325;42.520;27.448;2023-06-19T12:03:55;5.85;;;3.78;;
8574;SDS011;4325;42.520;27.448;2023-06-19T12:06:22;5.05;;;3.53;;
8574;SDS011;4325;42.520;27.448;2023-06-19T12:08:50;4.45;;;3.40;;
8574;SDS011;4325;42.520;27.448;2023-06-19T12:11:17;5.43;;;3.20;;
8574;SDS011;4325;42.520;27.448;2023-06-19T12:13:44;4.95;;;3.67;;
8574;SDS011;4325;42.520;27.448;2023-06-19T12:16:11;3.35;;;3.05;;
8574;SDS011;4325;42.520;27.448;2023-06-19T12:18:38;4.65;;;3.90;;
8574;SDS011;4325;42.520;27.448;2023-06-19T12:21:05;6.35;;;2.97;;
8574;SDS011;4325;42.520;27.448;2023-06-19T12:23:32;5.20;;;3.33;;
8574;SDS011;4325;42.520;27.448;2023-06-19T12:26:01;3.63;;;3.30;;
8574;SDS011;4325;42.520;27.448;2023-06-19T12:28:27;4.85;;;3.97;;
8574;SDS011;4325;42.520;27.448;2023-06-19T12:30:55;4.25;;;3.60;;
8574;SDS011;4325;42.520;27.448;2023-06-19T12:33:23;3.22;;;2.92;;
8574;SDS011;4325;42.520;27.448;2023-06-19T12:35:50;3.63;;;3.28;;
8574;SDS011;4325;42.520;27.448;2023-06-19T12:38:17;4.55;;;3.42;;
8574;SDS011;4325;42.520;27.448;2023-06-19T12:40:44;4.30;;;3.10;;
8574;SDS011;4325;42.520;27.448;2023-06-19T12:43:12;3.20;;;2.90;;
8574;SDS011;4325;42.520;27.448;2023-06-19T12:45:39;4.00;;;3.60;;
8574;SDS011;4325;42.520;27.448;2023-06-19T12:48:06;3.90;;;3.37;;
8574;SDS011;4325;42.520;27.448;2023-06-19T12:50:33;5.37;;;3.50;;
8574;SDS011;4325;42.520;27.448;2023-06-19T12:53:00;3.57;;;3.20;;
8574;SDS011;4325;42.520;27.448;2023-06-19T12:55:27;6.50;;;3.37;;
8574;SDS011;4325;42.520;27.448;2023-06-19T12:57:54;3.37;;;3.07;;
8574;SDS011;4325;42.520;27.448;2023-06-19T13:00:23;3.80;;;3.43;;
8574;SDS011;4325;42.520;27.448;2023-06-19T13:02:49;3.80;;;3.37;;
8574;SDS011;4325;42.520;27.448;2023-06-19T13:05:16;3.67;;;3.37;;
8574;SDS011;4325;42.520;27.448;2023-06-19T13:07:43;3.75;;;3.35;;
8574;SDS011;4325;42.520;27.448;2023-06-19T13:10:10;3.42;;;3.03;;
8574;SDS011;4325;42.520;27.448;2023-06-19T13:12:37;3.40;;;3.10;;
8574;SDS011;4325;42.520;27.448;2023-06-19T13:15:05;6.22;;;3.03;;
8574;SDS011;4325;42.520;27.448;2023-06-19T13:17:34;5.60;;;2.92;;
8574;SDS011;4325;42.520;27.448;2023-06-19T13:20:01;3.70;;;3.10;;
8574;SDS011;4325;42.520;27.448;2023-06-19T13:22:29;4.03;;;3.17;;
8574;SDS011;4325;42.520;27.448;2023-06-19T13:24:56;3.30;;;3.00;;
8574;SDS011;4325;42.520;27.448;2023-06-19T13:27:23;3.70;;;3.07;;
8574;SDS011;4325;42.520;27.448;2023-06-19T13:29:50;4.70;;;3.00;;
8574;SDS011;4325;42.520;27.448;2023-06-19T13:32:17;3.53;;;2.87;;
8574;SDS011;4325;42.520;27.448;2023-06-19T13:34:45;3.37;;;3.07;;
8574;SDS011;4325;42.520;27.448;2023-06-19T13:37:12;4.53;;;3.07;;
8574;SDS011;4325;42.520;27.448;2023-06-19T13:39:39;3.23;;;2.93;;
8574;SDS011;4325;42.520;27.448;2023-06-19T13:42:06;6.03;;;2.87;;
8574;SDS011;4325;42.520;27.448;2023-06-19T13:44:33;3.23;;;2.77;;
8574;SDS011;4325;42.520;27.448;2023-06-19T13:47:00;4.33;;;2.90;;
8574;SDS011;4325;42.520;27.448;2023-06-19T13:49:27;4.07;;;3.13;;
8574;SDS011;4325;42.520;27.448;2023-06-19T13:51:56;3.00;;;2.80;;
8574;SDS011;4325;42.520;27.448;2023-06-19T13:54:23;2.87;;;2.60;;
8574;SDS011;4325;42.520;27.448;2023-06-19T13:56:50;4.17;;;2.90;;
8574;SDS011;4325;42.520;27.448;2023-06-19T13:59:17;2.73;;;2.53;;
8574;SDS011;4325;42.520;27.448;2023-06-19T14:01:44;3.87;;;3.47;;
8574;SDS011;4325;42.520;27.448;2023-06-19T14:04:11;3.63;;;2.37;;
8574;SDS011;4325;42.520;27.448;2023-06-19T14:06:38;3.30;;;3.00;;
8574;SDS011;4325;42.520;27.448;2023-06-19T14:09:08;3.93;;;3.53;;
8574;SDS011;4325;42.520;27.448;2023-06-19T14:11:35;4.50;;;3.27;;
8574;SDS011;4325;42.520;27.448;2023-06-19T14:14:02;3.03;;;2.70;;
8574;SDS011;4325;42.520;27.448;2023-06-19T14:16:29;4.00;;;3.10;;
8574;SDS011;4325;42.520;27.448;2023-06-19T14:18:56;3.57;;;3.27;;
8574;SDS011;4325;42.520;27.448;2023-06-19T14:21:23;3.50;;;3.20;;
8574;SDS011;4325;42.520;27.448;2023-06-19T14:23:50;9.23;;;3.50;;
8574;SDS011;4325;42.520;27.448;2023-06-19T14:26:19;5.83;;;3.23;;
8574;SDS011;4325;42.520;27.448;2023-06-19T14:28:46;5.97;;;3.03;;
8574;SDS011;4325;42.520;27.448;2023-06-19T14:31:13;3.00;;;2.80;;
8574;SDS011;4325;42.520;27.448;2023-06-19T14:33:40;3.33;;;3.03;;
8574;SDS011;4325;42.520;27.448;2023-06-19T14:36:07;4.50;;;3.20;;
8574;SDS011;4325;42.520;27.448;2023-06-19T14:38:34;3.73;;;3.30;;
8574;SDS011;4325;42.520;27.448;2023-06-19T14:41:01;2.87;;;2.60;;
8574;SDS011;4325;42.520;27.448;2023-06-19T14:43:29;3.73;;;3.43;;
8574;SDS011;4325;42.520;27.448;2023-06-19T14:45:57;3.63;;;2.90;;
8574;SDS011;4325;42.520;27.448;2023-06-19T14:48:24;2.63;;;2.43;;
8574;SDS011;4325;42.520;27.448;2023-06-19T14:50:52;5.27;;;2.40;;
8574;SDS011;4325;42.520;27.448;2023-06-19T14:53:18;7.63;;;2.83;;
8574;SDS011;4325;42.520;27.448;2023-06-19T14:55:45;3.53;;;3.00;;
8574;SDS011;4325;42.520;27.448;2023-06-19T14:58:12;3.13;;;2.83;;
8574;SDS011;4325;42.520;27.448;2023-06-19T15:00:41;2.90;;;2.70;;
8574;SDS011;4325;42.520;27.448;2023-06-19T15:03:08;2.70;;;2.47;;